sensor_id;sensor_type;location;lat;lon;timestamp;P1;durP1;ratioP1;P2;durP2;ratioP2
5217;SDS011;26539;51.064;6.346;2023-07-09T00:00:16;7.87;;;6.87;;
5217;SDS011;26539;51.064;6.346;2023-07-09T00:02:43;8.13;;;6.20;;
5217;SDS011;26539;51.064;6.346;2023-07-09T00:05:13;8.23;;;6.23;;
5217;SDS011;26539;51.064;6.346;2023-07-09T00:07:43;12.47;;;6.93;;
5217;SDS011;26539;51.064;6.346;2023-07-09T00:10:14;9.63;;;7.37;;
5217;SDS011;26539;51.064;6.346;2023-07-09T00:12:42;7.60;;;6.30;;
5217;SDS011;26539;51.064;6.346;2023-07-09T00:15:09;8.10;;;6.60;;
5217;SDS011;26539;51.064;6.346;2023-07-09T00:17:36;10.20;;;6.40;;
5217;SDS011;26539;51.064;6.346;2023-07-09T00:20:04;10.23;;;7.43;;
5217;SDS011;26539;51.064;6.346;2023-07-09T00:22:38;7.77;;;5.77;;
5217;SDS011;26539;51.064;6.346;2023-07-09T00:25:04;8.93;;;6.80;;
5217;SDS011;26539;51.064;6.346;2023-07-09T00:27:30;14.37;;;6.23;;
5217;SDS011;26539;51.064;6.346;2023-07-09T00:29:56;7.23;;;5.90;;
5217;SDS011;26539;51.064;6.346;2023-07-09T00:32:21;10.07;;;6.70;;
5217;SDS011;26539;51.064;6.346;2023-07-09T00:34:47;10.17;;;6.20;;
5217;SDS011;26539;51.064;6.346;2023-07-09T00:37:17;7.20;;;6.40;;
5217;SDS011;26539;51.064;6.346;2023-07-09T00:39:44;8.77;;;6.60;;
5217;SDS011;26539;51.064;6.346;2023-07-09T00:42:18;10.53;;;6.30;;
5217;SDS011;26539;51.064;6.346;2023-07-09T00:44:45;11.97;;;6.70;;
5217;SDS011;26539;51.064;6.346;2023-07-09T00:50:33;9.60;;;6.50;;
5217;SDS011;26539;51.064;6.346;2023-07-09T00:53:34;12.57;;;6.60;;
5217;SDS011;26539;51.064;6.346;2023-07-09T00:56:03;10.03;;;6.60;;
5217;SDS011;26539;51.064;6.346;2023-07-09T00:58:33;9.00;;;5.80;;
5217;SDS011;26539;51.064;6.346;2023-07-09T01:01:09;11.60;;;6.10;;
5217;SDS011;26539;51.064;6.346;2023-07-09T01:03:47;8.53;;;6.70;;
5217;SDS011;26539;51.064;6.346;2023-07-09T01:06:18;8.93;;;6.07;;
5217;SDS011;26539;51.064;6.346;2023-07-09T01:08:50;9.57;;;7.00;;
5217;SDS011;26539;51.064;6.346;2023-07-09T01:11:19;7.83;;;6.53;;
5217;SDS011;26539;51.064;6.346;2023-07-09T01:13:47;8.00;;;6.33;;
5217;SDS011;26539;51.064;6.346;2023-07-09T01:16:16;12.13;;;6.50;;
5217;SDS011;26539;51.064;6.346;2023-07-09T01:18:42;8.67;;;6.83;;
5217;SDS011;26539;51.064;6.346;2023-07-09T01:21:09;8.23;;;6.77;;
5217;SDS011;26539;51.064;6.346;2023-07-09T01:23:41;12.40;;;7.40;;
5217;SDS011;26539;51.064;6.346;2023-07-09T01:26:09;8.80;;;6.97;;
5217;SDS011;26539;51.064;6.346;2023-07-09T01:28:36;8.00;;;6.53;;
5217;SDS011;26539;51.064;6.346;2023-07-09T01:31:01;11.20;;;7.00;;
5217;SDS011;26539;51.064;6.346;2023-07-09T01:33:29;10.07;;;7.00;;
5217;SDS011;26539;51.064;6.346;2023-07-09T01:35:55;11.47;;;7.60;;
5217;SDS011;26539;51.064;6.346;2023-07-09T01:38:25;9.60;;;7.20;;
5217;SDS011;26539;51.064;6.346;2023-07-09T01:40:55;10.60;;;7.60;;
5217;SDS011;26539;51.064;6.346;2023-07-09T01:43:21;10.60;;;7.10;;
5217;SDS011;26539;51.064;6.346;2023-07-09T01:45:47;9.30;;;6.43;;
5217;SDS011;26539;51.064;6.346;2023-07-09T01:48:15;10.07;;;7.30;;
5217;SDS011;26539;51.064;6.346;2023-07-09T01:50:41;9.03;;;6.80;;
5217;SDS011;26539;51.064;6.346;2023-07-09T01:53:08;10.37;;;7.50;;
5217;SDS011;26539;51.064;6.346;2023-07-09T01:55:36;11.73;;;7.37;;
5217;SDS011;26539;51.064;6.346;2023-07-09T01:58:02;10.20;;;8.07;;
5217;SDS011;26539;51.064;6.346;2023-07-09T02:00:31;9.40;;;7.60;;
5217;SDS011;26539;51.064;6.346;2023-07-09T02:02:57;12.97;;;7.30;;
5217;SDS011;26539;51.064;6.346;2023-07-09T02:05:25;8.87;;;6.93;;
5217;SDS011;26539;51.064;6.346;2023-07-09T02:07:51;7.90;;;6.70;;
5217;SDS011;26539;51.064;6.346;2023-07-09T02:10:17;9.63;;;7.37;;
5217;SDS011;26539;51.064;6.346;2023-07-09T02:12:43;11.93;;;8.70;;
5217;SDS011;26539;51.064;6.346;2023-07-09T02:15:09;10.43;;;7.50;;
5217;SDS011;26539;51.064;6.346;2023-07-09T02:17:35;16.23;;;8.10;;
5217;SDS011;26539;51.064;6.346;2023-07-09T02:20:01;10.80;;;7.57;;
5217;SDS011;26539;51.064;6.346;2023-07-09T02:22:29;12.07;;;8.60;;
5217;SDS011;26539;51.064;6.346;2023-07-09T02:24:54;10.83;;;8.20;;
5217;SDS011;26539;51.064;6.346;2023-07-09T02:27:20;13.73;;;7.90;;
5217;SDS011;26539;51.064;6.346;2023-07-09T02:29:46;10.53;;;8.30;;
5217;SDS011;26539;51.064;6.346;2023-07-09T02:32:16;9.13;;;7.50;;
5217;SDS011;26539;51.064;6.346;2023-07-09T02:34:44;13.90;;;8.30;;
5217;SDS011;26539;51.064;6.346;2023-07-09T02:37:13;13.03;;;8.27;;
5217;SDS011;26539;51.064;6.346;2023-07-09T02:39:45;9.00;;;7.53;;
5217;SDS011;26539;51.064;6.346;2023-07-09T02:42:12;11.00;;;7.57;;
5217;SDS011;26539;51.064;6.346;2023-07-09T02:44:39;10.97;;;8.10;;
5217;SDS011;26539;51.064;6.346;2023-07-09T02:47:06;12.53;;;8.60;;
5217;SDS011;26539;51.064;6.346;2023-07-09T02:49:34;12.13;;;7.67;;
5217;SDS011;26539;51.064;6.346;2023-07-09T02:52:00;13.17;;;7.80;;
5217;SDS011;26539;51.064;6.346;2023-07-09T02:54:26;11.80;;;7.43;;
5217;SDS011;26539;51.064;6.346;2023-07-09T02:56:51;8.43;;;7.20;;
5217;SDS011;26539;51.064;6.346;2023-07-09T02:59:17;10.90;;;7.67;;
5217;SDS011;26539;51.064;6.346;2023-07-09T03:01:43;9.77;;;7.50;;
5217;SDS011;26539;51.064;6.346;2023-07-09T03:04:08;12.40;;;7.87;;
5217;SDS011;26539;51.064;6.346;2023-07-09T03:06:36;19.63;;;8.00;;
5217;SDS011;26539;51.064;6.346;2023-07-09T03:09:03;10.80;;;7.80;;
5217;SDS011;26539;51.064;6.346;2023-07-09T03:11:30;17.00;;;8.07;;
5217;SDS011;26539;51.064;6.346;2023-07-09T03:13:57;12.77;;;8.50;;
5217;SDS011;26539;51.064;6.346;2023-07-09T03:16:23;16.73;;;7.50;;
5217;SDS011;26539;51.064;6.346;2023-07-09T03:18:52;12.40;;;7.60;;
5217;SDS011;26539;51.064;6.346;2023-07-09T03:21:18;18.17;;;9.03;;
5217;SDS011;26539;51.064;6.346;2023-07-09T03:23:43;11.73;;;7.60;;
5217;SDS011;26539;51.064;6.346;2023-07-09T03:26:09;12.83;;;8.37;;
5217;SDS011;26539;51.064;6.346;2023-07-09T03:28:35;10.93;;;8.40;;
5217;SDS011;26539;51.064;6.346;2023-07-09T03:31:00;14.70;;;9.50;;
5217;SDS011;26539;51.064;6.346;2023-07-09T03:33:26;10.73;;;8.17;;
5217;SDS011;26539;51.064;6.346;2023-07-09T03:35:51;13.50;;;8.20;;
5217;SDS011;26539;51.064;6.346;2023-07-09T03:38:17;16.00;;;7.87;;
5217;SDS011;26539;51.064;6.346;2023-07-09T03:40:43;13.80;;;7.47;;
5217;SDS011;26539;51.064;6.346;2023-07-09T03:43:09;14.67;;;8.13;;
5217;SDS011;26539;51.064;6.346;2023-07-09T03:45:35;10.10;;;6.87;;
5217;SDS011;26539;51.064;6.346;2023-07-09T03:48:02;13.00;;;7.80;;
5217;SDS011;26539;51.064;6.346;2023-07-09T03:50:29;12.17;;;7.63;;
5217;SDS011;26539;51.064;6.346;2023-07-09T03:52:55;10.37;;;6.63;;
5217;SDS011;26539;51.064;6.346;2023-07-09T03:55:20;14.20;;;8.20;;
5217;SDS011;26539;51.064;6.346;2023-07-09T03:57:46;11.40;;;7.37;;
5217;SDS011;26539;51.064;6.346;2023-07-09T04:00:12;10.67;;;6.97;;
5217;SDS011;26539;51.064;6.346;2023-07-09T04:02:39;13.03;;;7.03;;
5217;SDS011;26539;51.064;6.346;2023-07-09T04:05:11;13.57;;;8.20;;
5217;SDS011;26539;51.064;6.346;2023-07-09T04:07:36;13.83;;;8.40;;
5217;SDS011;26539;51.064;6.346;2023-07-09T04:10:03;13.27;;;7.67;;
5217;SDS011;26539;51.064;6.346;2023-07-09T04:12:29;13.80;;;7.77;;
5217;SDS011;26539;51.064;6.346;2023-07-09T04:14:55;13.03;;;8.13;;
5217;SDS011;26539;51.064;6.346;2023-07-09T04:17:20;17.03;;;7.97;;
5217;SDS011;26539;51.064;6.346;2023-07-09T04:19:48;15.83;;;8.53;;
5217;SDS011;26539;51.064;6.346;2023-07-09T04:22:16;16.13;;;8.80;;
5217;SDS011;26539;51.064;6.346;2023-07-09T04:24:42;12.40;;;8.83;;
5217;SDS011;26539;51.064;6.346;2023-07-09T04:27:08;13.30;;;7.93;;
5217;SDS011;26539;51.064;6.346;2023-07-09T04:29:34;16.27;;;7.80;;
5217;SDS011;26539;51.064;6.346;2023-07-09T04:32:04;13.57;;;8.57;;
5217;SDS011;26539;51.064;6.346;2023-07-09T04:34:30;13.70;;;8.00;;
5217;SDS011;26539;51.064;6.346;2023-07-09T04:36:56;11.03;;;7.63;;
5217;SDS011;26539;51.064;6.346;2023-07-09T04:39:21;13.23;;;8.83;;
5217;SDS011;26539;51.064;6.346;2023-07-09T04:41:47;13.50;;;8.50;;
5217;SDS011;26539;51.064;6.346;2023-07-09T04:44:13;13.77;;;8.53;;
5217;SDS011;26539;51.064;6.346;2023-07-09T04:46:39;18.33;;;9.30;;
5217;SDS011;26539;51.064;6.346;2023-07-09T04:49:04;13.00;;;8.60;;
5217;SDS011;26539;51.064;6.346;2023-07-09T04:51:30;15.03;;;8.33;;
5217;SDS011;26539;51.064;6.346;2023-07-09T04:53:55;10.33;;;8.70;;
5217;SDS011;26539;51.064;6.346;2023-07-09T04:56:21;15.50;;;9.10;;
5217;SDS011;26539;51.064;6.346;2023-07-09T04:58:47;13.60;;;8.60;;
5217;SDS011;26539;51.064;6.346;2023-07-09T05:01:13;16.57;;;9.40;;
5217;SDS011;26539;51.064;6.346;2023-07-09T05:03:38;11.50;;;7.57;;
5217;SDS011;26539;51.064;6.346;2023-07-09T05:06:04;15.20;;;8.77;;
5217;SDS011;26539;51.064;6.346;2023-07-09T05:08:30;13.33;;;9.10;;
5217;SDS011;26539;51.064;6.346;2023-07-09T05:10:56;15.23;;;7.83;;
5217;SDS011;26539;51.064;6.346;2023-07-09T05:13:25;21.80;;;8.97;;
5217;SDS011;26539;51.064;6.346;2023-07-09T05:15:52;13.27;;;8.13;;
5217;SDS011;26539;51.064;6.346;2023-07-09T05:18:17;12.33;;;8.40;;
5217;SDS011;26539;51.064;6.346;2023-07-09T05:20:43;19.13;;;8.43;;
5217;SDS011;26539;51.064;6.346;2023-07-09T05:23:13;14.40;;;8.70;;
5217;SDS011;26539;51.064;6.346;2023-07-09T05:25:38;19.03;;;9.50;;
5217;SDS011;26539;51.064;6.346;2023-07-09T05:28:04;13.90;;;8.47;;
5217;SDS011;26539;51.064;6.346;2023-07-09T05:30:30;15.20;;;9.03;;
5217;SDS011;26539;51.064;6.346;2023-07-09T05:32:56;13.97;;;8.40;;
5217;SDS011;26539;51.064;6.346;2023-07-09T05:35:23;11.80;;;8.13;;
5217;SDS011;26539;51.064;6.346;2023-07-09T05:37:50;17.03;;;8.97;;
5217;SDS011;26539;51.064;6.346;2023-07-09T05:40:16;15.10;;;8.30;;
5217;SDS011;26539;51.064;6.346;2023-07-09T05:42:41;9.33;;;8.10;;
5217;SDS011;26539;51.064;6.346;2023-07-09T05:45:07;10.77;;;7.70;;
5217;SDS011;26539;51.064;6.346;2023-07-09T05:47:33;13.63;;;8.40;;
5217;SDS011;26539;51.064;6.346;2023-07-09T05:49:58;12.20;;;8.43;;
5217;SDS011;26539;51.064;6.346;2023-07-09T05:52:24;10.03;;;7.83;;
5217;SDS011;26539;51.064;6.346;2023-07-09T05:54:50;12.00;;;7.97;;
5217;SDS011;26539;51.064;6.346;2023-07-09T05:57:16;10.50;;;7.83;;
5217;SDS011;26539;51.064;6.346;2023-07-09T05:59:42;12.03;;;7.77;;
5217;SDS011;26539;51.064;6.346;2023-07-09T06:02:11;12.53;;;9.00;;
5217;SDS011;26539;51.064;6.346;2023-07-09T06:04:37;15.47;;;9.10;;
5217;SDS011;26539;51.064;6.346;2023-07-09T06:07:03;13.23;;;8.10;;
5217;SDS011;26539;51.064;6.346;2023-07-09T06:09:29;13.70;;;8.67;;
5217;SDS011;26539;51.064;6.346;2023-07-09T06:11:55;10.80;;;8.73;;
5217;SDS011;26539;51.064;6.346;2023-07-09T06:14:21;8.70;;;7.20;;
5217;SDS011;26539;51.064;6.346;2023-07-09T06:16:46;11.20;;;7.57;;
5217;SDS011;26539;51.064;6.346;2023-07-09T06:19:12;12.37;;;6.90;;
5217;SDS011;26539;51.064;6.346;2023-07-09T06:21:38;11.43;;;7.23;;
5217;SDS011;26539;51.064;6.346;2023-07-09T06:24:05;8.93;;;6.10;;
5217;SDS011;26539;51.064;6.346;2023-07-09T06:26:32;10.97;;;7.27;;
5217;SDS011;26539;51.064;6.346;2023-07-09T06:28:57;8.87;;;6.13;;
5217;SDS011;26539;51.064;6.346;2023-07-09T06:31:23;7.40;;;5.83;;
5217;SDS011;26539;51.064;6.346;2023-07-09T06:33:49;7.47;;;5.53;;
5217;SDS011;26539;51.064;6.346;2023-07-09T06:36:16;7.00;;;5.97;;
5217;SDS011;26539;51.064;6.346;2023-07-09T06:38:43;10.73;;;6.63;;
5217;SDS011;26539;51.064;6.346;2023-07-09T06:41:09;7.23;;;6.00;;
5217;SDS011;26539;51.064;6.346;2023-07-09T06:43:34;6.27;;;5.17;;
5217;SDS011;26539;51.064;6.346;2023-07-09T06:46:03;9.07;;;5.97;;
5217;SDS011;26539;51.064;6.346;2023-07-09T06:48:30;6.43;;;5.70;;
5217;SDS011;26539;51.064;6.346;2023-07-09T06:50:56;6.77;;;6.10;;
5217;SDS011;26539;51.064;6.346;2023-07-09T06:53:23;5.93;;;5.30;;
5217;SDS011;26539;51.064;6.346;2023-07-09T06:55:50;6.50;;;5.30;;
5217;SDS011;26539;51.064;6.346;2023-07-09T06:58:17;7.90;;;5.90;;
5217;SDS011;26539;51.064;6.346;2023-07-09T07:00:43;7.67;;;6.77;;
5217;SDS011;26539;51.064;6.346;2023-07-09T07:03:09;7.70;;;4.73;;
5217;SDS011;26539;51.064;6.346;2023-07-09T07:05:35;6.77;;;5.90;;
5217;SDS011;26539;51.064;6.346;2023-07-09T07:08:02;8.63;;;5.60;;
5217;SDS011;26539;51.064;6.346;2023-07-09T07:10:28;7.27;;;4.73;;
5217;SDS011;26539;51.064;6.346;2023-07-09T07:12:55;5.07;;;4.60;;
5217;SDS011;26539;51.064;6.346;2023-07-09T07:15:23;8.60;;;4.80;;
5217;SDS011;26539;51.064;6.346;2023-07-09T07:17:49;6.07;;;4.97;;
5217;SDS011;26539;51.064;6.346;2023-07-09T07:20:15;8.35;;;4.97;;
5217;SDS011;26539;51.064;6.346;2023-07-09T07:22:41;8.55;;;4.65;;
5217;SDS011;26539;51.064;6.346;2023-07-09T07:25:06;5.38;;;4.47;;
5217;SDS011;26539;51.064;6.346;2023-07-09T07:27:33;9.82;;;4.22;;
5217;SDS011;26539;51.064;6.346;2023-07-09T07:30:00;7.18;;;4.93;;
5217;SDS011;26539;51.064;6.346;2023-07-09T07:32:26;5.65;;;4.63;;
5217;SDS011;26539;51.064;6.346;2023-07-09T07:34:51;5.97;;;4.20;;
5217;SDS011;26539;51.064;6.346;2023-07-09T07:37:18;5.13;;;4.68;;
5217;SDS011;26539;51.064;6.346;2023-07-09T07:39:47;7.90;;;4.75;;
5217;SDS011;26539;51.064;6.346;2023-07-09T07:42:13;4.70;;;4.20;;
5217;SDS011;26539;51.064;6.346;2023-07-09T07:44:39;4.90;;;4.40;;
5217;SDS011;26539;51.064;6.346;2023-07-09T07:47:04;8.02;;;4.57;;
5217;SDS011;26539;51.064;6.346;2023-07-09T07:49:30;5.50;;;4.07;;
5217;SDS011;26539;51.064;6.346;2023-07-09T07:51:56;6.90;;;5.20;;
5217;SDS011;26539;51.064;6.346;2023-07-09T07:54:21;7.82;;;4.32;;
5217;SDS011;26539;51.064;6.346;2023-07-09T07:56:47;7.65;;;4.68;;
5217;SDS011;26539;51.064;6.346;2023-07-09T07:59:12;5.38;;;4.88;;
5217;SDS011;26539;51.064;6.346;2023-07-09T08:01:39;4.78;;;4.07;;
5217;SDS011;26539;51.064;6.346;2023-07-09T08:04:04;6.45;;;4.47;;
5217;SDS011;26539;51.064;6.346;2023-07-09T08:06:30;6.50;;;4.57;;
5217;SDS011;26539;51.064;6.346;2023-07-09T08:08:56;6.07;;;4.40;;
5217;SDS011;26539;51.064;6.346;2023-07-09T08:11:22;5.00;;;4.60;;
5217;SDS011;26539;51.064;6.346;2023-07-09T08:13:49;6.30;;;4.30;;
5217;SDS011;26539;51.064;6.346;2023-07-09T08:16:14;6.47;;;4.23;;
5217;SDS011;26539;51.064;6.346;2023-07-09T08:18:43;6.10;;;4.70;;
5217;SDS011;26539;51.064;6.346;2023-07-09T08:21:08;4.70;;;4.30;;
5217;SDS011;26539;51.064;6.346;2023-07-09T08:23:34;4.70;;;4.30;;
5217;SDS011;26539;51.064;6.346;2023-07-09T08:26:00;7.83;;;4.73;;
5217;SDS011;26539;51.064;6.346;2023-07-09T08:28:28;5.07;;;4.27;;
5217;SDS011;26539;51.064;6.346;2023-07-09T08:30:55;4.47;;;4.07;;
5217;SDS011;26539;51.064;6.346;2023-07-09T08:33:21;6.03;;;4.67;;
5217;SDS011;26539;51.064;6.346;2023-07-09T08:35:48;5.60;;;3.50;;
5217;SDS011;26539;51.064;6.346;2023-07-09T08:38:15;6.95;;;4.57;;
5217;SDS011;26539;51.064;6.346;2023-07-09T08:40:40;6.68;;;4.03;;
5217;SDS011;26539;51.064;6.346;2023-07-09T08:45:59;6.22;;;4.47;;
5217;SDS011;26539;51.064;6.346;2023-07-09T08:48:47;7.30;;;4.18;;
5217;SDS011;26539;51.064;6.346;2023-07-09T08:53:49;4.90;;;4.40;;
5217;SDS011;26539;51.064;6.346;2023-07-09T08:56:20;5.20;;;4.70;;
5217;SDS011;26539;51.064;6.346;2023-07-09T08:58:47;6.70;;;4.22;;
5217;SDS011;26539;51.064;6.346;2023-07-09T09:01:36;6.30;;;4.28;;
5217;SDS011;26539;51.064;6.346;2023-07-09T09:04:05;4.20;;;3.80;;
5217;SDS011;26539;51.064;6.346;2023-07-09T09:06:45;6.18;;;4.60;;
5217;SDS011;26539;51.064;6.346;2023-07-09T09:14:46;4.95;;;4.30;;
5217;SDS011;26539;51.064;6.346;2023-07-09T09:17:19;5.13;;;4.63;;
5217;SDS011;26539;51.064;6.346;2023-07-09T09:20:04;4.07;;;3.75;;
5217;SDS011;26539;51.064;6.346;2023-07-09T09:25:29;6.25;;;3.88;;
5217;SDS011;26539;51.064;6.346;2023-07-09T09:27:58;7.13;;;3.97;;
5217;SDS011;26539;51.064;6.346;2023-07-09T09:30:28;4.50;;;3.67;;
5217;SDS011;26539;51.064;6.346;2023-07-09T09:32:55;5.77;;;3.60;;
5217;SDS011;26539;51.064;6.346;2023-07-09T09:35:35;6.77;;;4.20;;
5217;SDS011;26539;51.064;6.346;2023-07-09T09:38:10;6.27;;;4.40;;
5217;SDS011;26539;51.064;6.346;2023-07-09T09:40:37;6.35;;;3.83;;
5217;SDS011;26539;51.064;6.346;2023-07-09T09:43:04;4.32;;;3.35;;
5217;SDS011;26539;51.064;6.346;2023-07-09T09:45:39;4.32;;;3.90;;
5217;SDS011;26539;51.064;6.346;2023-07-09T09:48:10;9.33;;;4.57;;
5217;SDS011;26539;51.064;6.346;2023-07-09T09:50:44;4.50;;;3.90;;
5217;SDS011;26539;51.064;6.346;2023-07-09T09:53:12;6.53;;;4.03;;
5217;SDS011;26539;51.064;6.346;2023-07-09T09:55:47;7.80;;;4.43;;
5217;SDS011;26539;51.064;6.346;2023-07-09T09:58:15;5.63;;;3.70;;
5217;SDS011;26539;51.064;6.346;2023-07-09T10:00:47;5.00;;;4.30;;
5217;SDS011;26539;51.064;6.346;2023-07-09T10:03:14;6.53;;;3.60;;
5217;SDS011;26539;51.064;6.346;2023-07-09T10:05:55;5.83;;;4.10;;
5217;SDS011;26539;51.064;6.346;2023-07-09T10:20:09;7.80;;;4.05;;
5217;SDS011;26539;51.064;6.346;2023-07-09T10:22:55;5.90;;;3.93;;
5217;SDS011;26539;51.064;6.346;2023-07-09T10:25:46;4.80;;;3.67;;
5217;SDS011;26539;51.064;6.346;2023-07-09T10:34:03;5.75;;;4.03;;
5217;SDS011;26539;51.064;6.346;2023-07-09T10:39:19;5.38;;;3.80;;
5217;SDS011;26539;51.064;6.346;2023-07-09T10:41:51;5.75;;;3.28;;
5217;SDS011;26539;51.064;6.346;2023-07-09T10:44:24;5.47;;;4.03;;
5217;SDS011;26539;51.064;6.346;2023-07-09T10:47:04;5.68;;;3.38;;
5217;SDS011;26539;51.064;6.346;2023-07-09T10:49:36;6.65;;;3.67;;
5217;SDS011;26539;51.064;6.346;2023-07-09T10:52:11;5.78;;;3.50;;
5217;SDS011;26539;51.064;6.346;2023-07-09T10:55:30;5.20;;;4.00;;
5217;SDS011;26539;51.064;6.346;2023-07-09T10:58:03;5.13;;;3.53;;
5217;SDS011;26539;51.064;6.346;2023-07-09T11:00:37;4.63;;;3.20;;
5217;SDS011;26539;51.064;6.346;2023-07-09T11:06:14;4.30;;;3.90;;
5217;SDS011;26539;51.064;6.346;2023-07-09T11:08:55;4.43;;;4.03;;
5217;SDS011;26539;51.064;6.346;2023-07-09T11:11:33;4.73;;;3.20;;
5217;SDS011;26539;51.064;6.346;2023-07-09T11:14:04;6.60;;;2.87;;
5217;SDS011;26539;51.064;6.346;2023-07-09T11:16:38;3.80;;;3.33;;
5217;SDS011;26539;51.064;6.346;2023-07-09T11:19:12;4.70;;;3.17;;
5217;SDS011;26539;51.064;6.346;2023-07-09T11:24:43;5.73;;;2.87;;
5217;SDS011;26539;51.064;6.346;2023-07-09T11:27:16;4.57;;;3.60;;
5217;SDS011;26539;51.064;6.346;2023-07-09T11:29:47;5.90;;;3.43;;
5217;SDS011;26539;51.064;6.346;2023-07-09T11:32:23;7.43;;;3.20;;
5217;SDS011;26539;51.064;6.346;2023-07-09T11:34:49;6.77;;;3.60;;
5217;SDS011;26539;51.064;6.346;2023-07-09T11:37:15;3.83;;;2.60;;
5217;SDS011;26539;51.064;6.346;2023-07-09T11:39:46;6.63;;;3.17;;
5217;SDS011;26539;51.064;6.346;2023-07-09T11:42:25;4.40;;;3.00;;
5217;SDS011;26539;51.064;6.346;2023-07-09T11:44:57;6.20;;;3.20;;
5217;SDS011;26539;51.064;6.346;2023-07-09T11:47:25;7.53;;;3.00;;
5217;SDS011;26539;51.064;6.346;2023-07-09T11:49:59;3.80;;;2.90;;
5217;SDS011;26539;51.064;6.346;2023-07-09T11:55:20;3.80;;;2.50;;
5217;SDS011;26539;51.064;6.346;2023-07-09T11:58:09;4.20;;;2.70;;
5217;SDS011;26539;51.064;6.346;2023-07-09T12:00:50;3.33;;;2.60;;
5217;SDS011;26539;51.064;6.346;2023-07-09T12:03:20;3.53;;;2.60;;
5217;SDS011;26539;51.064;6.346;2023-07-09T12:05:51;3.90;;;2.57;;
5217;SDS011;26539;51.064;6.346;2023-07-09T12:08:22;3.13;;;2.60;;
5217;SDS011;26539;51.064;6.346;2023-07-09T12:10:54;4.50;;;3.07;;
5217;SDS011;26539;51.064;6.346;2023-07-09T12:13:19;3.63;;;2.83;;
5217;SDS011;26539;51.064;6.346;2023-07-09T12:15:45;6.13;;;2.70;;
5217;SDS011;26539;51.064;6.346;2023-07-09T12:18:12;3.27;;;2.60;;
5217;SDS011;26539;51.064;6.346;2023-07-09T12:20:40;6.67;;;3.07;;
5217;SDS011;26539;51.064;6.346;2023-07-09T12:26:01;3.73;;;2.87;;
5217;SDS011;26539;51.064;6.346;2023-07-09T12:28:28;6.23;;;3.17;;
5217;SDS011;26539;51.064;6.346;2023-07-09T12:30:54;3.50;;;2.97;;
5217;SDS011;26539;51.064;6.346;2023-07-09T12:33:21;4.57;;;2.80;;
5217;SDS011;26539;51.064;6.346;2023-07-09T12:35:49;4.10;;;2.80;;
5217;SDS011;26539;51.064;6.346;2023-07-09T12:38:23;7.43;;;2.87;;
5217;SDS011;26539;51.064;6.346;2023-07-09T12:40:51;5.60;;;3.77;;
5217;SDS011;26539;51.064;6.346;2023-07-09T12:43:21;6.70;;;3.30;;
5217;SDS011;26539;51.064;6.346;2023-07-09T12:45:51;4.13;;;3.53;;
5217;SDS011;26539;51.064;6.346;2023-07-09T12:48:23;5.10;;;2.80;;
5217;SDS011;26539;51.064;6.346;2023-07-09T12:50:51;6.50;;;3.63;;
5217;SDS011;26539;51.064;6.346;2023-07-09T12:53:17;5.63;;;3.90;;
5217;SDS011;26539;51.064;6.346;2023-07-09T12:55:46;9.50;;;3.83;;
5217;SDS011;26539;51.064;6.346;2023-07-09T12:58:21;3.53;;;3.10;;
5217;SDS011;26539;51.064;6.346;2023-07-09T13:00:53;4.17;;;3.77;;
5217;SDS011;26539;51.064;6.346;2023-07-09T13:03:24;15.80;;;4.50;;
5217;SDS011;26539;51.064;6.346;2023-07-09T13:05:57;9.95;;;4.90;;
5217;SDS011;26539;51.064;6.346;2023-07-09T13:08:29;10.63;;;4.63;;
5217;SDS011;26539;51.064;6.346;2023-07-09T13:10:57;10.37;;;5.03;;
5217;SDS011;26539;51.064;6.346;2023-07-09T13:13:23;9.10;;;4.60;;
5217;SDS011;26539;51.064;6.346;2023-07-09T13:15:55;13.93;;;4.10;;
5217;SDS011;26539;51.064;6.346;2023-07-09T13:18:26;7.10;;;4.80;;
5217;SDS011;26539;51.064;6.346;2023-07-09T13:20:54;8.87;;;4.67;;
5217;SDS011;26539;51.064;6.346;2023-07-09T13:23:23;14.70;;;5.00;;
5217;SDS011;26539;51.064;6.346;2023-07-09T13:25:50;6.73;;;4.10;;
5217;SDS011;26539;51.064;6.346;2023-07-09T13:28:30;10.43;;;3.60;;
5217;SDS011;26539;51.064;6.346;2023-07-09T13:30:57;12.17;;;4.80;;
5217;SDS011;26539;51.064;6.346;2023-07-09T13:33:25;8.57;;;4.63;;
5217;SDS011;26539;51.064;6.346;2023-07-09T13:35:50;8.50;;;4.37;;
5217;SDS011;26539;51.064;6.346;2023-07-09T13:38:19;8.97;;;4.90;;
5217;SDS011;26539;51.064;6.346;2023-07-09T13:40:50;7.67;;;4.10;;
5217;SDS011;26539;51.064;6.346;2023-07-09T13:43:26;8.20;;;4.27;;
5217;SDS011;26539;51.064;6.346;2023-07-09T13:45:55;8.87;;;4.00;;
5217;SDS011;26539;51.064;6.346;2023-07-09T13:48:22;10.57;;;4.70;;
5217;SDS011;26539;51.064;6.346;2023-07-09T13:50:49;7.63;;;3.90;;
5217;SDS011;26539;51.064;6.346;2023-07-09T13:53:17;9.20;;;4.90;;
5217;SDS011;26539;51.064;6.346;2023-07-09T13:55:45;8.60;;;4.23;;
5217;SDS011;26539;51.064;6.346;2023-07-09T13:58:12;9.80;;;4.50;;
5217;SDS011;26539;51.064;6.346;2023-07-09T14:00:40;7.40;;;5.87;;
5217;SDS011;26539;51.064;6.346;2023-07-09T14:03:21;13.17;;;5.50;;
5217;SDS011;26539;51.064;6.346;2023-07-09T14:05:49;8.47;;;5.77;;
5217;SDS011;26539;51.064;6.346;2023-07-09T14:08:15;9.23;;;5.80;;
5217;SDS011;26539;51.064;6.346;2023-07-09T14:10:45;11.30;;;5.40;;
5217;SDS011;26539;51.064;6.346;2023-07-09T14:13:12;7.70;;;5.87;;
5217;SDS011;26539;51.064;6.346;2023-07-09T14:15:40;11.20;;;5.87;;
5217;SDS011;26539;51.064;6.346;2023-07-09T14:18:13;10.10;;;6.00;;
5217;SDS011;26539;51.064;6.346;2023-07-09T14:20:42;9.60;;;6.30;;
5217;SDS011;26539;51.064;6.346;2023-07-09T14:23:11;9.20;;;6.03;;
5217;SDS011;26539;51.064;6.346;2023-07-09T14:25:38;19.50;;;7.90;;
5217;SDS011;26539;51.064;6.346;2023-07-09T14:28:08;8.53;;;6.70;;
5217;SDS011;26539;51.064;6.346;2023-07-09T14:30:37;10.07;;;7.40;;
5217;SDS011;26539;51.064;6.346;2023-07-09T14:33:02;13.47;;;6.87;;
5217;SDS011;26539;51.064;6.346;2023-07-09T14:35:29;15.03;;;6.97;;
5217;SDS011;26539;51.064;6.346;2023-07-09T14:37:55;11.23;;;6.87;;
5217;SDS011;26539;51.064;6.346;2023-07-09T14:40:21;7.87;;;6.50;;
5217;SDS011;26539;51.064;6.346;2023-07-09T14:42:47;6.40;;;5.40;;
5217;SDS011;26539;51.064;6.346;2023-07-09T14:47:42;8.10;;;5.90;;
5217;SDS011;26539;51.064;6.346;2023-07-09T14:50:08;6.17;;;5.57;;
5217;SDS011;26539;51.064;6.346;2023-07-09T14:52:34;10.53;;;5.90;;
5217;SDS011;26539;51.064;6.346;2023-07-09T14:55:00;7.70;;;5.60;;
5217;SDS011;26539;51.064;6.346;2023-07-09T14:57:26;11.20;;;6.40;;
5217;SDS011;26539;51.064;6.346;2023-07-09T14:59:54;11.50;;;5.93;;
5217;SDS011;26539;51.064;6.346;2023-07-09T15:04:57;8.47;;;6.03;;
5217;SDS011;26539;51.064;6.346;2023-07-09T15:07:23;10.87;;;6.10;;
5217;SDS011;26539;51.064;6.346;2023-07-09T15:09:54;11.80;;;5.90;;
5217;SDS011;26539;51.064;6.346;2023-07-09T15:12:22;11.60;;;6.30;;
5217;SDS011;26539;51.064;6.346;2023-07-09T15:14:59;9.17;;;7.27;;
5217;SDS011;26539;51.064;6.346;2023-07-09T15:17:41;12.17;;;8.00;;
5217;SDS011;26539;51.064;6.346;2023-07-09T15:20:13;11.10;;;8.87;;
5217;SDS011;26539;51.064;6.346;2023-07-09T15:22:40;11.80;;;9.50;;
5217;SDS011;26539;51.064;6.346;2023-07-09T15:25:14;13.27;;;10.00;;
5217;SDS011;26539;51.064;6.346;2023-07-09T15:27:50;15.87;;;10.80;;
5217;SDS011;26539;51.064;6.346;2023-07-09T15:30:17;12.67;;;10.60;;
5217;SDS011;26539;51.064;6.346;2023-07-09T15:32:45;13.40;;;11.10;;
5217;SDS011;26539;51.064;6.346;2023-07-09T15:35:12;11.10;;;10.00;;
5217;SDS011;26539;51.064;6.346;2023-07-09T15:37:38;18.20;;;12.90;;
5217;SDS011;26539;51.064;6.346;2023-07-09T15:40:05;13.40;;;12.00;;
5217;SDS011;26539;51.064;6.346;2023-07-09T15:42:51;13.27;;;11.97;;
5217;SDS011;26539;51.064;6.346;2023-07-09T15:45:18;13.93;;;12.30;;
5217;SDS011;26539;51.064;6.346;2023-07-09T15:47:45;13.07;;;11.70;;
5217;SDS011;26539;51.064;6.346;2023-07-09T15:50:22;15.63;;;12.90;;
5217;SDS011;26539;51.064;6.346;2023-07-09T15:52:50;17.80;;;14.60;;
5217;SDS011;26539;51.064;6.346;2023-07-09T15:55:20;16.27;;;12.60;;
5217;SDS011;26539;51.064;6.346;2023-07-09T15:57:50;14.80;;;13.20;;